Huvudsida
METAR-TAF:

METAR-TAF

Flygplatser :

Ämari flygbas

Ämari, Estland

latitud: 59-15-44N, longitud: 24-13-07E, höjd: 20 m

Aktuellt väderrapport

Denna rapport gjordes för 1 timme och 5 minuter sedan, klockan 10:50 UTC
Vind 3 kt från nord
Temperatur 1°C
Fuktighet 100%
Tryck 1013 hPa
Sikt: 9000 m
Brutna moln på en höjd av 1400 ft
Mulet på en höjd av 2100 ft
lätt regn

METAR: EEEI 111050Z 01003KT 9000 -RA BKN014 OVC021 01/01 Q1013 R06/290095 NOSIG

Tid: 13:55 (11:55 UTC)

Väderprognos

Denna rapport gjordes för 25 minuter sedan, klockan 11:30 UTC
Prognos gäller från 11 kl. 12 UTC till 12 kl. 12 UTC
Vind 11 kt från nord/nordost
Sikt 10 km eller mer
Mulet på en höjd av 2000 ft
Temporärt
från 11 kl. 12 UTC till 11 kl. 18 UTC
Sikt: 4000 m
Brutna moln på en höjd av 600 ft
lätt regn, snö

TAF: EEEI 111130Z 1112/1212 03011KT 9999 OVC020 TEMPO 1112/1118 4000 -RASN BKN006

Aktuella väderrapporter och prognoser från 4000 flygplatser (METAR- och TAF-rapporter).

De tillgängliga stationerna syns som gula och röda prickar på kartan.

För musen över prickarna för att se namnen på stationerna.

Klicka sedan för att få väderrapporter och prognoser.

För att ändra kartan: Klicka på de gröna knapparna med ett svart kors på för att zooma in; den gröna knappen med ett streck på för att zooma ut; eller på de gröna pilarna för angränsande kartor.


METAR-TAF: